Time;durP1;ratioP1;P1;durP2;ratioP2;P2;SDS_P1;SDS_P2;PMS_P1;PMS_P2;Temp;Humidity;BMP_temperature;BMP_pressure;BME280_temperature;BME280_humidity;BME280_pressure;Samples;Min_cycle;Max_cycle;Signal;HPM_P1;HPM_P2
2024/03/30 00:01:01;;;;;;;5.53;4.97;;;;;;;;;;4975496;28;20631;-77
2024/03/30 00:03:28;;;;;;;4.57;4.17;;;;;;;;;;5006416;28;20249;-78
2024/03/30 00:06:01;;;;;;;4.63;4.10;;;;;;;;;;5007252;28;20292;-77
2024/03/30 00:08:27;;;;;;;4.10;3.80;;;;;;;;;;4999022;28;20245;-77
2024/03/30 00:11:02;;;;;;;3.97;3.67;;;;;;;;;;4984836;28;20568;-79
2024/03/30 00:13:28;;;;;;;3.80;3.50;;;;;;;;;;5000370;28;20251;-78
2024/03/30 00:15:56;;;;;;;3.53;3.20;;;;;;;;;;4977654;28;20630;-77
2024/03/30 00:18:22;;;;;;;3.20;2.90;;;;;;;;;;4973312;28;20257;-78
2024/03/30 00:20:47;;;;;;;3.97;3.57;;;;;;;;;;4971931;28;20356;-78
2024/03/30 00:23:13;;;;;;;3.53;3.33;;;;;;;;;;4986439;28;20702;-78
2024/03/30 00:25:41;;;;;;;3.53;3.13;;;;;;;;;;4987401;28;20232;-77
2024/03/30 00:28:09;;;;;;;3.60;3.30;;;;;;;;;;4989148;28;20221;-78
2024/03/30 00:30:42;;;;;;;3.23;2.93;;;;;;;;;;4990246;28;20268;-78
2024/03/30 00:33:10;;;;;;;2.97;2.77;;;;;;;;;;4975383;28;21025;-78
2024/03/30 00:35:38;;;;;;;4.40;4.07;;;;;;;;;;4991123;28;20598;-78
2024/03/30 00:38:08;;;;;;;4.33;3.93;;;;;;;;;;4991009;28;20249;-77
2024/03/30 00:40:34;;;;;;;6.23;4.13;;;;;;;;;;4991661;28;20243;-77
2024/03/30 00:43:01;;;;;;;4.30;3.30;;;;;;;;;;4990688;28;20229;-79
2024/03/30 00:45:29;;;;;;;4.47;3.40;;;;;;;;;;5007382;28;20280;-78
2024/03/30 00:47:59;;;;;;;4.20;3.80;;;;;;;;;;4990862;28;20224;-77
2024/03/30 00:50:27;;;;;;;4.37;3.87;;;;;;;;;;5004703;28;20222;-77
2024/03/30 00:52:52;;;;;;;4.10;3.67;;;;;;;;;;4990980;28;20223;-78
2024/03/30 00:55:18;;;;;;;4.00;3.60;;;;;;;;;;4990411;28;20221;-78
2024/03/30 00:57:43;;;;;;;4.37;3.97;;;;;;;;;;4975750;28;20601;-78
2024/03/30 01:00:14;;;;;;;4.20;3.80;;;;;;;;;;4988988;28;20373;-77
2024/03/30 01:02:42;;;;;;;3.17;2.93;;;;;;;;;;4976249;28;20273;-78
2024/03/30 01:05:08;;;;;;;3.70;3.40;;;;;;;;;;4974782;28;20252;-78
2024/03/30 01:07:33;;;;;;;3.50;3.20;;;;;;;;;;4991014;28;20225;-78
2024/03/30 01:09:59;;;;;;;3.30;3.00;;;;;;;;;;4973998;28;20236;-79
2024/03/30 01:12:28;;;;;;;3.20;2.90;;;;;;;;;;4988316;28;20312;-78
2024/03/30 01:14:56;;;;;;;3.90;3.40;;;;;;;;;;4975783;28;20340;-78
2024/03/30 01:17:22;;;;;;;4.37;3.20;;;;;;;;;;5007290;28;20729;-77
2024/03/30 01:19:50;;;;;;;4.10;3.80;;;;;;;;;;4991804;28;20225;-78
2024/03/30 01:22:16;;;;;;;3.80;3.50;;;;;;;;;;4989901;28;20264;-78
2024/03/30 01:24:44;;;;;;;4.67;3.73;;;;;;;;;;4975214;28;20224;-77
2024/03/30 01:27:17;;;;;;;5.03;3.47;;;;;;;;;;4974334;28;20232;-77
2024/03/30 01:29:43;;;;;;;3.87;3.57;;;;;;;;;;4990378;28;20220;-79
2024/03/30 01:32:12;;;;;;;4.53;4.10;;;;;;;;;;4990486;28;20222;-77
2024/03/30 01:34:37;;;;;;;3.70;3.33;;;;;;;;;;4991096;28;20222;-78
2024/03/30 01:37:05;;;;;;;4.27;3.80;;;;;;;;;;5009644;28;20249;-79
2024/03/30 01:39:31;;;;;;;3.80;3.50;;;;;;;;;;5005491;28;20234;-77
2024/03/30 01:41:56;;;;;;;4.10;3.77;;;;;;;;;;5007068;28;20229;-78
2024/03/30 01:44:24;;;;;;;3.83;3.53;;;;;;;;;;5006692;28;20221;-77
2024/03/30 01:46:52;;;;;;;4.00;3.70;;;;;;;;;;4986493;28;20233;-78
2024/03/30 01:49:20;;;;;;;5.10;4.07;;;;;;;;;;4957381;28;20221;-78
2024/03/30 01:51:47;;;;;;;4.40;4.00;;;;;;;;;;5008800;28;20232;-77
2024/03/30 01:54:12;;;;;;;4.53;4.13;;;;;;;;;;4991668;28;20249;-76
2024/03/30 01:56:38;;;;;;;5.00;4.20;;;;;;;;;;4978420;28;20221;-78
2024/03/30 01:59:03;;;;;;;3.90;3.60;;;;;;;;;;4988134;28;20303;-77
2024/03/30 02:01:29;;;;;;;4.23;3.93;;;;;;;;;;4973627;28;20776;-77
2024/03/30 02:03:55;;;;;;;4.43;3.90;;;;;;;;;;4974265;28;20702;-78
2024/03/30 02:06:21;;;;;;;5.13;4.73;;;;;;;;;;4988925;28;20317;-77
2024/03/30 02:08:46;;;;;;;5.20;4.20;;;;;;;;;;4988833;28;20218;-77
2024/03/30 02:11:13;;;;;;;5.60;4.50;;;;;;;;;;4989463;28;20990;-77
2024/03/30 02:13:39;;;;;;;4.97;4.57;;;;;;;;;;4974191;28;20311;-78
2024/03/30 02:16:05;;;;;;;4.80;4.40;;;;;;;;;;4971974;28;20300;-78
2024/03/30 02:18:31;;;;;;;5.17;4.77;;;;;;;;;;4973372;28;20225;-78
2024/03/30 02:20:56;;;;;;;4.83;4.43;;;;;;;;;;4973582;28;20241;-79
2024/03/30 02:23:24;;;;;;;5.10;4.70;;;;;;;;;;4971943;28;20222;-79
2024/03/30 02:25:56;;;;;;;5.30;4.80;;;;;;;;;;5004439;28;20710;-79
2024/03/30 02:28:26;;;;;;;5.30;4.80;;;;;;;;;;5004990;28;20226;-79
2024/03/30 02:30:54;;;;;;;4.93;4.53;;;;;;;;;;4973851;28;20217;-78
2024/03/30 02:33:24;;;;;;;6.10;4.87;;;;;;;;;;4988827;28;20694;-79
2024/03/30 02:35:52;;;;;;;5.50;5.10;;;;;;;;;;4957705;28;20281;-79
2024/03/30 02:38:19;;;;;;;5.53;4.90;;;;;;;;;;5004887;28;20236;-78
2024/03/30 02:40:58;;;;;;;5.50;5.00;;;;;;;;;;5005515;28;20611;-78
2024/03/30 02:43:26;;;;;;;5.70;5.20;;;;;;;;;;4986764;28;20229;-78
2024/03/30 02:45:52;;;;;;;6.13;5.10;;;;;;;;;;5006111;28;20228;-77
2024/03/30 02:48:17;;;;;;;5.40;5.00;;;;;;;;;;4979777;28;20254;-78
2024/03/30 02:50:43;;;;;;;5.67;5.17;;;;;;;;;;4989385;28;20281;-79
2024/03/30 02:53:08;;;;;;;5.83;5.17;;;;;;;;;;4972933;28;20234;-78
2024/03/30 02:55:34;;;;;;;6.73;5.57;;;;;;;;;;4974013;28;20724;-79
2024/03/30 02:58:02;;;;;;;5.77;5.27;;;;;;;;;;5006952;28;20721;-78
2024/03/30 03:00:30;;;;;;;5.73;5.33;;;;;;;;;;4993028;28;20324;-78
2024/03/30 03:02:58;;;;;;;6.23;5.73;;;;;;;;;;5004111;28;20248;-78
2024/03/30 03:05:26;;;;;;;5.80;5.30;;;;;;;;;;4988684;28;20233;-77
2024/03/30 03:07:51;;;;;;;6.00;5.50;;;;;;;;;;5016544;28;20305;-78
2024/03/30 03:10:17;;;;;;;6.47;5.87;;;;;;;;;;4981759;28;20213;-79
2024/03/30 03:12:42;;;;;;;6.27;5.67;;;;;;;;;;5013444;28;20990;-78
2024/03/30 03:15:08;;;;;;;6.97;6.27;;;;;;;;;;4980421;28;20221;-79
2024/03/30 03:17:39;;;;;;;6.30;5.83;;;;;;;;;;4994275;28;20245;-78
2024/03/30 03:20:08;;;;;;;6.50;5.90;;;;;;;;;;5006238;28;20291;-79
2024/03/30 03:22:34;;;;;;;5.97;5.47;;;;;;;;;;4991090;28;20285;-79
2024/03/30 03:25:00;;;;;;;6.17;5.67;;;;;;;;;;4977119;28;20224;-79
2024/03/30 03:27:25;;;;;;;6.30;5.70;;;;;;;;;;4992050;28;20236;-78
2024/03/30 03:29:53;;;;;;;6.33;5.73;;;;;;;;;;5009089;28;20340;-78
2024/03/30 03:32:19;;;;;;;6.27;5.77;;;;;;;;;;4974813;28;20209;-80
2024/03/30 03:34:47;;;;;;;6.37;5.77;;;;;;;;;;4993994;28;20878;-79
2024/03/30 03:37:14;;;;;;;6.60;6.00;;;;;;;;;;5007947;28;20841;-78
2024/03/30 03:39:40;;;;;;;5.67;5.27;;;;;;;;;;4992086;28;20237;-78
2024/03/30 03:42:06;;;;;;;6.57;5.80;;;;;;;;;;4993197;28;20279;-78
2024/03/30 03:44:31;;;;;;;7.63;5.83;;;;;;;;;;4975924;28;20228;-79
2024/03/30 03:47:01;;;;;;;6.33;5.83;;;;;;;;;;4993769;28;20601;-79
2024/03/30 03:49:27;;;;;;;6.37;5.80;;;;;;;;;;4990643;28;20281;-78
2024/03/30 03:51:56;;;;;;;6.63;5.90;;;;;;;;;;5008854;28;20225;-78
2024/03/30 03:54:22;;;;;;;6.47;5.83;;;;;;;;;;4991414;28;20256;-79
2024/03/30 03:56:48;;;;;;;6.13;5.63;;;;;;;;;;4993220;28;20233;-79
2024/03/30 04:03:00;;;;;;;6.70;6.10;;;;;;;;;;4994683;28;20239;-77
2024/03/30 04:05:28;;;;;;;6.37;5.87;;;;;;;;;;4993536;28;20217;-78
2024/03/30 04:07:54;;;;;;;6.97;6.40;;;;;;;;;;5007853;28;20247;-78
2024/03/30 04:10:20;;;;;;;7.57;6.60;;;;;;;;;;4991106;28;20221;-79
2024/03/30 04:12:47;;;;;;;7.30;6.60;;;;;;;;;;5007801;28;20222;-78
2024/03/30 04:15:18;;;;;;;6.63;6.03;;;;;;;;;;5007255;28;20283;-77
2024/03/30 04:17:47;;;;;;;6.83;6.13;;;;;;;;;;5004921;28;20646;-77
2024/03/30 04:20:12;;;;;;;6.70;6.00;;;;;;;;;;4972805;28;20232;-77
2024/03/30 04:22:40;;;;;;;6.63;6.03;;;;;;;;;;4988670;28;20225;-77
2024/03/30 04:25:09;;;;;;;7.30;6.17;;;;;;;;;;4988944;28;20228;-77
2024/03/30 04:27:36;;;;;;;7.00;6.37;;;;;;;;;;4975200;28;20229;-79
2024/03/30 04:30:02;;;;;;;6.80;6.20;;;;;;;;;;4974253;28;20348;-77
2024/03/30 04:32:33;;;;;;;6.47;5.87;;;;;;;;;;5006921;28;20222;-77
2024/03/30 04:35:05;;;;;;;6.07;5.57;;;;;;;;;;4998325;28;20225;-76
2024/03/30 04:37:31;;;;;;;7.03;6.40;;;;;;;;;;4994350;28;20248;-76
2024/03/30 04:40:00;;;;;;;8.37;6.73;;;;;;;;;;5016552;28;20236;-77
2024/03/30 04:42:30;;;;;;;6.97;6.27;;;;;;;;;;5015034;28;20225;-77
2024/03/30 04:44:56;;;;;;;6.80;6.10;;;;;;;;;;4985108;28;20296;-78
2024/03/30 04:47:24;;;;;;;6.97;6.37;;;;;;;;;;5014190;28;20233;-78
2024/03/30 04:49:52;;;;;;;6.90;6.27;;;;;;;;;;4984813;28;20728;-77
2024/03/30 04:52:17;;;;;;;7.33;6.70;;;;;;;;;;4982942;28;20231;-77
2024/03/30 04:54:43;;;;;;;7.13;6.53;;;;;;;;;;4997905;28;20248;-77
2024/03/30 04:57:10;;;;;;;7.13;6.43;;;;;;;;;;5002155;28;20229;-77
2024/03/30 04:59:38;;;;;;;7.43;6.73;;;;;;;;;;5002336;28;20237;-77
2024/03/30 05:02:04;;;;;;;7.50;6.80;;;;;;;;;;5001338;28;20229;-76
2024/03/30 05:04:29;;;;;;;7.30;6.70;;;;;;;;;;5013482;28;20837;-76
2024/03/30 05:06:55;;;;;;;7.37;6.67;;;;;;;;;;5016581;28;20245;-78
2024/03/30 05:09:23;;;;;;;6.97;6.27;;;;;;;;;;5000404;28;20279;-78
2024/03/30 05:11:48;;;;;;;6.70;6.10;;;;;;;;;;4987742;28;20231;-77
2024/03/30 05:14:14;;;;;;;7.03;6.27;;;;;;;;;;4999630;28;20229;-77
2024/03/30 05:16:41;;;;;;;7.00;6.40;;;;;;;;;;4986137;28;20229;-76
2024/03/30 05:20:42;;;;;;;7.17;6.40;;;;;;;;;;4982865;28;20314;-75
2024/03/30 05:21:55;;;;;;;7.40;6.70;;;;;;;;;;5017548;28;20237;-77
2024/03/30 05:24:20;;;;;;;7.10;6.50;;;;;;;;;;4981642;28;20690;-76
2024/03/30 05:26:46;;;;;;;7.33;6.63;;;;;;;;;;5019747;28;20233;-76
2024/03/30 05:29:11;;;;;;;6.97;6.27;;;;;;;;;;4980287;28;20213;-77
2024/03/30 05:31:39;;;;;;;6.63;6.03;;;;;;;;;;4988583;28;20260;-78
2024/03/30 05:34:04;;;;;;;7.17;6.43;;;;;;;;;;5002901;28;20225;-76
2024/03/30 05:36:30;;;;;;;7.83;6.77;;;;;;;;;;5021359;28;20538;-76
2024/03/30 05:38:55;;;;;;;6.33;5.83;;;;;;;;;;5002095;28;20293;-78
2024/03/30 05:41:26;;;;;;;6.43;5.73;;;;;;;;;;5021471;28;20248;-76
2024/03/30 05:43:54;;;;;;;6.30;5.70;;;;;;;;;;5002199;28;20229;-76
2024/03/30 05:46:22;;;;;;;6.17;5.67;;;;;;;;;;4977684;28;20221;-78
2024/03/30 05:48:50;;;;;;;6.27;5.70;;;;;;;;;;5004780;28;20283;-77
2024/03/30 05:51:16;;;;;;;6.13;5.63;;;;;;;;;;4973787;28;20213;-78
2024/03/30 05:53:46;;;;;;;6.33;5.83;;;;;;;;;;4974140;28;20276;-77
2024/03/30 05:56:12;;;;;;;7.10;6.40;;;;;;;;;;4986122;28;20323;-77
2024/03/30 05:58:37;;;;;;;6.47;5.87;;;;;;;;;;5006350;28;20320;-77
2024/03/30 06:01:07;;;;;;;6.13;5.53;;;;;;;;;;5004935;28;20766;-76
2024/03/30 06:03:33;;;;;;;7.00;5.63;;;;;;;;;;4972292;28;20280;-78
2024/03/30 06:05:58;;;;;;;6.23;5.17;;;;;;;;;;5003498;28;20217;-76
2024/03/30 06:08:24;;;;;;;5.40;4.90;;;;;;;;;;4989015;28;20228;-76
2024/03/30 06:10:49;;;;;;;5.43;4.90;;;;;;;;;;4972187;28;20240;-78
2024/03/30 06:13:15;;;;;;;5.63;4.70;;;;;;;;;;5005633;28;20222;-78
2024/03/30 06:15:43;;;;;;;4.80;4.40;;;;;;;;;;5006484;28;20316;-78
2024/03/30 06:18:09;;;;;;;4.40;4.00;;;;;;;;;;4973670;28;20221;-78
2024/03/30 06:20:34;;;;;;;4.10;3.70;;;;;;;;;;4989012;28;20233;-76
2024/03/30 06:23:02;;;;;;;4.30;3.90;;;;;;;;;;4987655;28;20226;-78
2024/03/30 06:25:32;;;;;;;3.67;3.37;;;;;;;;;;4989172;28;20221;-78
2024/03/30 06:27:58;;;;;;;3.80;3.50;;;;;;;;;;5003987;28;20463;-77
2024/03/30 06:30:25;;;;;;;4.10;3.70;;;;;;;;;;5005115;28;20221;-78
2024/03/30 06:32:53;;;;;;;4.17;3.47;;;;;;;;;;4973507;28;20241;-78
2024/03/30 06:35:19;;;;;;;4.17;3.00;;;;;;;;;;4976207;28;20712;-78
2024/03/30 06:37:49;;;;;;;3.40;3.10;;;;;;;;;;4992334;28;20221;-78
2024/03/30 06:45:48;;;;;;;3.77;3.47;;;;;;;;;;4991444;28;20244;-78
2024/03/30 06:48:14;;;;;;;3.80;3.50;;;;;;;;;;4990940;28;20229;-77
2024/03/30 06:50:39;;;;;;;3.90;3.60;;;;;;;;;;4993436;28;20647;-78
2024/03/30 06:53:05;;;;;;;3.97;3.57;;;;;;;;;;4991325;28;20217;-79
2024/03/30 06:55:35;;;;;;;3.87;3.37;;;;;;;;;;4991054;28;20235;-78
2024/03/30 06:58:01;;;;;;;3.77;3.47;;;;;;;;;;4976275;28;20236;-76
2024/03/30 07:00:27;;;;;;;4.00;3.70;;;;;;;;;;4997047;28;20229;-78
2024/03/30 07:02:54;;;;;;;3.63;3.33;;;;;;;;;;5011017;28;20725;-77
2024/03/30 07:05:20;;;;;;;3.90;3.50;;;;;;;;;;4990716;28;20264;-77
2024/03/30 07:07:46;;;;;;;4.07;3.77;;;;;;;;;;4989525;28;20260;-77
2024/03/30 07:10:13;;;;;;;4.37;3.77;;;;;;;;;;4989455;28;20217;-78
2024/03/30 07:12:39;;;;;;;4.93;4.03;;;;;;;;;;4988672;28;20229;-78
2024/03/30 07:15:05;;;;;;;5.17;3.57;;;;;;;;;;4971941;28;20217;-77
2024/03/30 07:17:33;;;;;;;3.90;3.60;;;;;;;;;;5007133;28;20865;-78
2024/03/30 07:19:59;;;;;;;4.37;3.80;;;;;;;;;;5009169;28;20400;-78
2024/03/30 07:22:27;;;;;;;3.80;3.50;;;;;;;;;;5007030;28;20233;-78
2024/03/30 07:24:56;;;;;;;4.10;3.70;;;;;;;;;;4977506;28;20309;-78
2024/03/30 07:27:23;;;;;;;3.40;3.10;;;;;;;;;;4976635;28;20288;-77
2024/03/30 07:29:51;;;;;;;3.40;3.10;;;;;;;;;;5008801;28;20304;-78
2024/03/30 07:32:22;;;;;;;3.00;2.80;;;;;;;;;;5008226;28;20217;-79
2024/03/30 07:34:49;;;;;;;3.30;3.00;;;;;;;;;;5008607;28;20225;-78
2024/03/30 07:37:17;;;;;;;3.20;2.90;;;;;;;;;;5008548;28;20229;-78
2024/03/30 07:39:45;;;;;;;3.30;3.10;;;;;;;;;;4992657;28;20317;-79
2024/03/30 07:42:11;;;;;;;4.00;3.10;;;;;;;;;;5006848;28;20221;-77
2024/03/30 07:44:37;;;;;;;3.80;3.20;;;;;;;;;;5010163;28;20228;-78
2024/03/30 07:47:07;;;;;;;3.33;3.00;;;;;;;;;;5007039;28;20230;-79
2024/03/30 07:49:33;;;;;;;3.87;2.90;;;;;;;;;;4994555;28;20256;-79
2024/03/30 07:51:59;;;;;;;3.77;3.00;;;;;;;;;;4976588;28;20278;-77
2024/03/30 07:54:27;;;;;;;3.50;2.97;;;;;;;;;;4993082;28;20854;-78
2024/03/30 07:57:01;;;;;;;2.80;2.60;;;;;;;;;;5007231;28;20229;-78
2024/03/30 07:59:26;;;;;;;3.00;2.80;;;;;;;;;;4977166;28;20227;-79
2024/03/30 08:01:54;;;;;;;2.83;2.63;;;;;;;;;;4976394;28;20232;-79
2024/03/30 08:04:24;;;;;;;3.13;2.90;;;;;;;;;;5008459;28;20218;-79
2024/03/30 08:06:53;;;;;;;2.70;2.50;;;;;;;;;;4993136;28;20237;-79
2024/03/30 08:09:19;;;;;;;2.50;2.30;;;;;;;;;;5006917;28;20217;-79
2024/03/30 08:11:48;;;;;;;2.90;2.53;;;;;;;;;;4962210;28;20276;-78
2024/03/30 08:14:19;;;;;;;2.53;2.33;;;;;;;;;;4975817;28;20279;-79
2024/03/30 08:16:47;;;;;;;2.50;2.30;;;;;;;;;;4995626;28;20230;-78
2024/03/30 08:19:18;;;;;;;2.90;2.50;;;;;;;;;;5008025;28;20760;-78
2024/03/30 08:21:44;;;;;;;2.37;2.17;;;;;;;;;;4994326;28;20245;-78
2024/03/30 08:24:12;;;;;;;2.80;2.00;;;;;;;;;;5006756;28;20236;-79
2024/03/30 08:26:37;;;;;;;2.33;1.97;;;;;;;;;;4992598;28;20233;-77
2024/03/30 08:29:03;;;;;;;2.33;2.00;;;;;;;;;;4991279;28;20235;-79
2024/03/30 08:31:31;;;;;;;2.40;2.00;;;;;;;;;;4976216;28;20225;-78
2024/03/30 08:33:56;;;;;;;1.65;1.55;;;;;;;;;;5008922;28;20740;-78
2024/03/30 08:36:22;;;;;;;1.95;1.75;;;;;;;;;;4992275;28;20608;-78
2024/03/30 08:38:50;;;;;;;1.80;1.70;;;;;;;;;;4981725;28;20948;-78
2024/03/30 08:41:18;;;;;;;1.80;1.55;;;;;;;;;;4978859;28;20240;-80
2024/03/30 08:43:46;;;;;;;3.78;1.65;;;;;;;;;;5007700;28;20316;-79
2024/03/30 08:46:12;;;;;;;1.48;1.38;;;;;;;;;;4976112;28;20229;-77
2024/03/30 08:48:42;;;;;;;2.38;1.30;;;;;;;;;;4994581;28;20626;-78
2024/03/30 08:51:07;;;;;;;2.17;1.20;;;;;;;;;;4993328;28;20225;-79
2024/03/30 08:53:35;;;;;;;2.05;1.10;;;;;;;;;;4977634;28;20217;-79
2024/03/30 08:56:01;;;;;;;1.30;1.20;;;;;;;;;;4979193;28;20468;-78
2024/03/30 08:58:30;;;;;;;2.03;1.05;;;;;;;;;;4977847;28;20232;-79
2024/03/30 09:00:58;;;;;;;2.03;1.00;;;;;;;;;;4979888;28;20230;-79
2024/03/30 09:03:26;;;;;;;2.60;1.05;;;;;;;;;;4993334;28;20232;-78
2024/03/30 09:05:54;;;;;;;1.50;1.13;;;;;;;;;;4994746;28;20221;-78
2024/03/30 09:08:23;;;;;;;1.70;0.98;;;;;;;;;;4961655;28;20237;-78
2024/03/30 09:10:48;;;;;;;1.77;1.02;;;;;;;;;;4977311;28;20253;-78
2024/03/30 09:13:16;;;;;;;1.77;1.00;;;;;;;;;;5008148;28;20849;-79
2024/03/30 09:15:49;;;;;;;0.90;0.85;;;;;;;;;;4992056;28;20227;-79
2024/03/30 09:18:15;;;;;;;2.55;0.93;;;;;;;;;;4991915;28;20241;-79
2024/03/30 09:20:43;;;;;;;1.70;1.00;;;;;;;;;;5007624;28;20233;-78
2024/03/30 09:23:10;;;;;;;0.82;0.70;;;;;;;;;;5006348;28;20247;-78
2024/03/30 09:25:36;;;;;;;2.20;1.02;;;;;;;;;;5008771;28;20220;-80
2024/03/30 09:28:02;;;;;;;2.60;1.00;;;;;;;;;;4990650;28;20237;-79
2024/03/30 09:30:30;;;;;;;2.00;0.80;;;;;;;;;;4991808;28;20221;-78
2024/03/30 09:32:55;;;;;;;1.50;0.90;;;;;;;;;;5008674;28;20218;-78
2024/03/30 09:35:25;;;;;;;4.32;0.98;;;;;;;;;;4975479;28;20220;-79
2024/03/30 09:37:53;;;;;;;2.10;1.10;;;;;;;;;;4992105;28;20221;-78
2024/03/30 09:40:21;;;;;;;4.00;1.17;;;;;;;;;;4991314;28;20260;-80
2024/03/30 09:42:49;;;;;;;3.67;1.25;;;;;;;;;;4977180;28;20209;-79
2024/03/30 09:45:15;;;;;;;3.72;1.00;;;;;;;;;;4976256;28;20593;-78
2024/03/30 09:47:41;;;;;;;3.35;1.20;;;;;;;;;;5009528;28;20317;-79
2024/03/30 09:50:10;;;;;;;4.00;1.40;;;;;;;;;;4975102;28;20263;-79
2024/03/30 09:52:39;;;;;;;3.58;1.40;;;;;;;;;;4979365;28;20236;-79
2024/03/30 09:55:10;;;;;;;4.13;1.48;;;;;;;;;;5012537;28;20227;-80
2024/03/30 09:57:49;;;;;;;5.60;1.35;;;;;;;;;;5012309;28;20240;-79
2024/03/30 10:00:16;;;;;;;2.67;1.10;;;;;;;;;;4979616;28;20225;-80
2024/03/30 10:02:41;;;;;;;3.47;1.60;;;;;;;;;;4997776;28;20295;-78
2024/03/30 10:05:09;;;;;;;3.40;1.42;;;;;;;;;;4982514;28;20233;-78
2024/03/30 10:07:35;;;;;;;6.07;1.63;;;;;;;;;;4997070;28;20242;-79
2024/03/30 10:10:06;;;;;;;5.88;1.20;;;;;;;;;;4982408;28;20284;-79
2024/03/30 10:12:39;;;;;;;4.60;1.23;;;;;;;;;;4990740;28;20288;-79
2024/03/30 10:15:05;;;;;;;4.10;1.42;;;;;;;;;;4982929;28;20229;-79
2024/03/30 10:17:31;;;;;;;3.85;1.30;;;;;;;;;;5014703;28;20697;-79
2024/03/30 10:19:57;;;;;;;9.40;1.60;;;;;;;;;;4981517;28;20244;-78
2024/03/30 10:22:25;;;;;;;7.32;1.80;;;;;;;;;;4982385;28;20225;-79
2024/03/30 10:24:53;;;;;;;5.60;1.55;;;;;;;;;;4996267;28;20228;-78
2024/03/30 10:27:18;;;;;;;5.55;1.45;;;;;;;;;;4980100;28;20225;-79
2024/03/30 10:29:44;;;;;;;7.13;1.75;;;;;;;;;;5013197;28;20225;-79
2024/03/30 10:32:12;;;;;;;5.97;1.75;;;;;;;;;;5013480;28;20307;-79
2024/03/30 10:34:40;;;;;;;4.15;1.50;;;;;;;;;;5014265;28;20236;-78
2024/03/30 10:37:11;;;;;;;6.45;1.42;;;;;;;;;;4981461;28;20300;-78
2024/03/30 10:39:36;;;;;;;8.57;1.52;;;;;;;;;;4963419;28;20312;-79
2024/03/30 10:42:02;;;;;;;6.30;1.58;;;;;;;;;;4997964;28;20222;-79
2024/03/30 10:44:30;;;;;;;5.78;1.70;;;;;;;;;;4978400;28;20221;-79
2024/03/30 10:46:56;;;;;;;7.72;1.50;;;;;;;;;;4996723;28;20718;-79
2024/03/30 10:49:24;;;;;;;6.60;1.80;;;;;;;;;;4995508;28;20253;-77
2024/03/30 10:51:53;;;;;;;7.63;1.90;;;;;;;;;;4997368;28;20249;-79
2024/03/30 10:54:22;;;;;;;7.40;1.70;;;;;;;;;;5012391;28;20234;-79
2024/03/30 10:56:53;;;;;;;5.35;2.00;;;;;;;;;;4982731;28;20236;-79
2024/03/30 10:59:23;;;;;;;8.32;2.40;;;;;;;;;;5012474;28;20656;-79
2024/03/30 11:02:01;;;;;;;8.63;1.90;;;;;;;;;;4952164;28;20580;-75
2024/03/30 11:04:27;;;;;;;6.45;2.17;;;;;;;;;;4931817;28;20238;-75
2024/03/30 11:06:52;;;;;;;6.00;1.92;;;;;;;;;;4924981;28;20223;-75
2024/03/30 11:09:22;;;;;;;9.02;2.25;;;;;;;;;;4902194;28;20710;-74
2024/03/30 11:11:53;;;;;;;5.65;1.90;;;;;;;;;;4933792;28;20690;-75
2024/03/30 11:14:20;;;;;;;8.65;2.15;;;;;;;;;;4915243;28;20232;-74
2024/03/30 11:16:50;;;;;;;7.63;1.60;;;;;;;;;;4940222;28;20328;-74
2024/03/30 11:19:29;;;;;;;7.30;1.98;;;;;;;;;;4925061;28;20267;-74
2024/03/30 11:22:32;;;;;;;9.18;1.92;;;;;;;;;;4948924;28;20223;-75
2024/03/30 11:25:00;;;;;;;7.95;1.92;;;;;;;;;;4939317;28;20342;-74
2024/03/30 11:27:28;;;;;;;7.03;1.90;;;;;;;;;;4933208;28;20234;-75
2024/03/30 11:30:02;;;;;;;8.63;1.85;;;;;;;;;;4933080;28;20224;-75
2024/03/30 11:32:29;;;;;;;8.20;1.92;;;;;;;;;;4931351;28;20674;-75
2024/03/30 11:34:59;;;;;;;6.95;2.25;;;;;;;;;;4933435;28;20310;-74
2024/03/30 11:37:27;;;;;;;7.03;1.95;;;;;;;;;;4937651;28;20228;-75
2024/03/30 11:40:15;;;;;;;5.15;1.80;;;;;;;;;;4924246;28;20227;-74
2024/03/30 11:42:47;;;;;;;7.18;2.15;;;;;;;;;;4907302;28;20610;-74
2024/03/30 11:45:17;;;;;;;10.48;2.33;;;;;;;;;;4919369;28;20228;-74
2024/03/30 11:47:47;;;;;;;6.57;1.80;;;;;;;;;;4932985;28;20301;-74
2024/03/30 11:50:15;;;;;;;6.95;1.80;;;;;;;;;;4917419;28;20224;-74
2024/03/30 11:52:52;;;;;;;8.98;2.35;;;;;;;;;;4902592;28;20216;-74
2024/03/30 11:55:48;;;;;;;7.57;1.98;;;;;;;;;;4946609;28;20776;-74
2024/03/30 11:58:23;;;;;;;11.40;2.50;;;;;;;;;;4933605;28;20600;-74
2024/03/30 12:00:51;;;;;;;6.85;2.10;;;;;;;;;;4913974;28;20276;-74
2024/03/30 12:03:17;;;;;;;9.95;2.30;;;;;;;;;;4928272;28;20228;-75
2024/03/30 12:05:50;;;;;;;9.10;2.20;;;;;;;;;;4919492;28;20578;-75
2024/03/30 12:08:21;;;;;;;10.15;2.33;;;;;;;;;;4932493;28;20215;-74
2024/03/30 12:10:55;;;;;;;6.55;2.17;;;;;;;;;;4915909;28;20227;-75
2024/03/30 12:13:27;;;;;;;7.30;2.20;;;;;;;;;;4932215;28;20311;-75
2024/03/30 12:15:58;;;;;;;9.55;2.25;;;;;;;;;;4903005;28;20256;-74
2024/03/30 12:18:26;;;;;;;8.77;2.42;;;;;;;;;;4926428;28;20220;-74
2024/03/30 12:20:52;;;;;;;6.68;2.00;;;;;;;;;;4919286;28;20380;-74
2024/03/30 12:23:22;;;;;;;10.25;2.25;;;;;;;;;;4923076;28;20239;-75
2024/03/30 12:25:48;;;;;;;9.60;2.25;;;;;;;;;;4910399;29;20227;-74
2024/03/30 12:28:16;;;;;;;7.38;2.20;;;;;;;;;;4917662;29;20269;-74
2024/03/30 12:30:45;;;;;;;10.57;2.40;;;;;;;;;;4911614;29;20220;-74
2024/03/30 12:33:10;;;;;;;6.75;2.13;;;;;;;;;;4933221;28;20732;-74
2024/03/30 12:35:36;;;;;;;11.18;2.83;;;;;;;;;;4936435;28;20213;-74
2024/03/30 12:38:03;;;;;;;11.68;2.80;;;;;;;;;;4902880;29;20220;-74
2024/03/30 12:40:34;;;;;;;12.75;2.50;;;;;;;;;;4901549;28;20224;-77
2024/03/30 12:43:00;;;;;;;7.18;2.28;;;;;;;;;;4903268;28;20413;-75
2024/03/30 12:45:26;;;;;;;8.75;2.50;;;;;;;;;;4916357;28;20220;-75
2024/03/30 12:47:51;;;;;;;11.55;2.30;;;;;;;;;;4933007;28;20229;-74
2024/03/30 12:50:19;;;;;;;12.00;2.90;;;;;;;;;;4910259;29;20220;-75
2024/03/30 12:52:48;;;;;;;7.30;2.10;;;;;;;;;;4916463;28;20248;-75
2024/03/30 12:55:16;;;;;;;9.63;2.30;;;;;;;;;;4915595;29;20232;-74
2024/03/30 12:57:44;;;;;;;8.15;2.30;;;;;;;;;;4904727;28;20667;-74
2024/03/30 13:00:16;;;;;;;10.23;2.55;;;;;;;;;;4918921;29;20614;-75
2024/03/30 13:02:57;;;;;;;11.05;2.50;;;;;;;;;;4924593;28;20242;-74
2024/03/30 13:05:33;;;;;;;8.02;2.22;;;;;;;;;;4932562;28;20325;-74
2024/03/30 13:08:01;;;;;;;8.45;2.05;;;;;;;;;;4906095;28;20223;-75
2024/03/30 13:10:29;;;;;;;9.52;2.60;;;;;;;;;;4920318;29;20236;-75
2024/03/30 13:12:55;;;;;;;9.50;2.50;;;;;;;;;;4919532;28;20228;-75
2024/03/30 13:15:28;;;;;;;10.18;2.55;;;;;;;;;;4936136;28;20336;-73
2024/03/30 13:17:53;;;;;;;9.68;2.40;;;;;;;;;;4922581;28;20220;-74
2024/03/30 13:20:20;;;;;;;9.80;2.38;;;;;;;;;;4887556;29;20231;-74
2024/03/30 13:22:47;;;;;;;9.93;2.25;;;;;;;;;;4919168;28;20228;-75
2024/03/30 13:25:15;;;;;;;14.00;2.88;;;;;;;;;;4930036;28;20307;-75
2024/03/30 13:27:46;;;;;;;14.07;3.10;;;;;;;;;;4919059;28;20804;-75
2024/03/30 13:30:12;;;;;;;11.25;2.75;;;;;;;;;;4931768;28;20216;-75
2024/03/30 13:32:40;;;;;;;14.15;2.60;;;;;;;;;;4919960;28;20224;-75
2024/03/30 13:35:13;;;;;;;12.63;3.05;;;;;;;;;;4918043;29;20307;-75
2024/03/30 13:37:44;;;;;;;15.38;3.03;;;;;;;;;;4916028;28;20233;-75
2024/03/30 13:40:12;;;;;;;11.60;3.20;;;;;;;;;;4917534;28;20315;-74
2024/03/30 13:42:38;;;;;;;9.63;2.70;;;;;;;;;;4888806;29;20239;-75
2024/03/30 13:45:06;;;;;;;7.60;2.40;;;;;;;;;;4899881;29;20297;-75
2024/03/30 13:47:32;;;;;;;8.00;2.38;;;;;;;;;;4917300;28;20262;-75
2024/03/30 13:50:00;;;;;;;10.10;2.65;;;;;;;;;;4936115;28;20754;-75
2024/03/30 13:52:25;;;;;;;10.30;2.58;;;;;;;;;;4931630;28;20228;-75
2024/03/30 13:54:53;;;;;;;13.65;2.65;;;;;;;;;;4902618;28;20228;-75
2024/03/30 13:57:19;;;;;;;11.27;3.05;;;;;;;;;;4903465;29;20230;-74
2024/03/30 13:59:49;;;;;;;12.35;2.67;;;;;;;;;;4926190;28;20600;-75
2024/03/30 14:02:14;;;;;;;11.48;2.58;;;;;;;;;;4928371;28;20247;-75
2024/03/30 14:04:45;;;;;;;9.55;2.65;;;;;;;;;;4914177;29;20723;-75
2024/03/30 14:07:15;;;;;;;11.15;2.70;;;;;;;;;;4933975;28;20232;-75
2024/03/30 14:09:40;;;;;;;7.60;2.22;;;;;;;;;;4916260;29;20261;-75
2024/03/30 14:12:06;;;;;;;9.85;2.80;;;;;;;;;;4901467;28;20434;-75
2024/03/30 14:14:31;;;;;;;14.15;3.03;;;;;;;;;;4901956;28;20231;-74
2024/03/30 14:17:05;;;;;;;9.55;2.80;;;;;;;;;;4888935;29;20229;-74
2024/03/30 14:19:35;;;;;;;11.98;3.25;;;;;;;;;;4929839;28;20730;-74
2024/03/30 14:22:03;;;;;;;12.77;3.05;;;;;;;;;;4932161;28;20768;-75
2024/03/30 14:24:32;;;;;;;9.52;2.70;;;;;;;;;;4928806;28;20235;-74
2024/03/30 14:27:00;;;;;;;14.85;3.17;;;;;;;;;;4916296;28;20834;-75
2024/03/30 14:29:25;;;;;;;15.88;3.75;;;;;;;;;;4932035;28;20223;-74
2024/03/30 14:31:53;;;;;;;11.38;2.97;;;;;;;;;;4933931;28;20247;-74
2024/03/30 14:34:18;;;;;;;10.68;2.80;;;;;;;;;;4902195;28;20228;-74
2024/03/30 14:36:46;;;;;;;12.02;3.22;;;;;;;;;;4931995;28;20225;-74
2024/03/30 14:39:12;;;;;;;17.30;3.05;;;;;;;;;;4916042;28;20260;-74
2024/03/30 14:41:43;;;;;;;11.55;3.10;;;;;;;;;;4916763;29;20236;-74
2024/03/30 14:44:11;;;;;;;11.00;2.95;;;;;;;;;;4916925;28;20235;-74
2024/03/30 14:46:37;;;;;;;13.35;2.90;;;;;;;;;;4915100;29;20283;-74
2024/03/30 14:49:04;;;;;;;13.02;3.33;;;;;;;;;;4928615;28;20211;-73
2024/03/30 14:51:35;;;;;;;12.68;3.63;;;;;;;;;;4918542;29;20320;-74
2024/03/30 14:54:03;;;;;;;14.98;3.08;;;;;;;;;;4902580;28;20224;-73